This is the latest recevied weather packets stored in our database for station/object N7SWJ. If no packets are shown the sender has not sent any weather packets the latest 10 day(s).
| Time | Temp. | Humidity | Pressure | Rain* | Wind** | Luminosity | Snow |
|---|---|---|---|---|---|---|---|
| 1778095184 | 5.56° C | 69% | 1022.3 hPa | 0 mm | - | 298 W/m² | - |
| 1778094881 | 5.56° C | 63% | 1022.4 hPa | 0 mm | - | 316 W/m² | - |
| 1778094577 | 5° C | 65% | 1022.6 hPa | 0 mm | - | 333 W/m² | - |
| 1778094274 | 5° C | 69% | 1022.4 hPa | 0 mm | - | 397 W/m² | - |
| 1778093971 | 4.44° C | 68% | 1022.6 hPa | 0 mm | - | 349 W/m² | - |
| 1778093668 | 3.89° C | 68% | 1022.6 hPa | 0 mm | - | 357 W/m² | - |
| 1778093365 | 3.89° C | 69% | 1022.4 hPa | 0 mm | - | 352 W/m² | - |
| 1778093062 | 3.89° C | 70% | 1022.4 hPa | 0 mm | - | 315 W/m² | - |
| 1778092754 | 4.44° C | 69% | 1022.6 hPa | 0 mm | - | 319 W/m² | - |
| 1778092449 | 3.89° C | 74% | 1022.8 hPa | 1.78 mm | - | 311 W/m² | - |
| 1778092147 | 3.89° C | 73% | 1022.7 hPa | 1.78 mm | - | 306 W/m² | - |
| 1778091844 | 3.89° C | 75% | 1022.9 hPa | 1.27 mm | - | 420 W/m² | - |
| 1778091541 | 3.89° C | 73% | 1022.8 hPa | 1.27 mm | - | 292 W/m² | - |
| 1778091239 | 3.89° C | 76% | 1022.9 hPa | 1.78 mm | - | 332 W/m² | - |
| 1778090936 | 3.89° C | 75% | 1022.9 hPa | 3.05 mm | - | 279 W/m² | - |
| 1778090632 | 4.44° C | 79% | 1022.9 hPa | 4.32 mm | - | 276 W/m² | - |
| 1778090329 | 5° C | 76% | 1022.7 hPa | 4.83 mm | - | 438 W/m² | - |
| 1778090025 | 3.89° C | 76% | 1023 hPa | 3.05 mm | - | 738 W/m² | - |
| 1778089722 | 3.89° C | 72% | 1022.9 hPa | 4.32 mm | - | 388 W/m² | - |
| 1778089420 | 3.89° C | 74% | 1022.7 hPa | 4.83 mm | - | 376 W/m² | - |
| 1778089117 | 3.33° C | 78% | 1022.8 hPa | 3.56 mm | - | 533 W/m² | - |
| 1778088813 | 3.89° C | 78% | 1022.7 hPa | 4.83 mm | - | 311 W/m² | - |
| 1778088510 | 3.33° C | 82% | 1022.8 hPa | 7.11 mm | - | 303 W/m² | - |
| 1778088207 | 4.44° C | 81% | 1022.9 hPa | 6.1 mm | - | 477 W/m² | - |
| 1778087905 | 3.33° C | 82% | 1022.9 hPa | 4.32 mm | - | 805 W/m² | - |
* Rain latest hour (hover to see other rain measurements)
** Current wind speed in m/s (hover to see current wind gust speed)